createdAt,value
2018-08-30T00:02:11.193Z,19.86
2018-08-30T00:04:40.214Z,19.67
2018-08-30T00:07:09.261Z,19.75
2018-08-30T00:09:38.434Z,19.58
2018-08-30T00:12:07.521Z,19.71
2018-08-30T00:14:36.452Z,19.70
2018-08-30T00:17:05.531Z,19.63
2018-08-30T00:19:34.577Z,19.45
2018-08-30T00:22:03.530Z,19.54
2018-08-30T00:24:32.719Z,19.25
2018-08-30T00:27:01.763Z,19.36
2018-08-30T00:29:30.734Z,19.31
2018-08-30T00:31:59.771Z,19.72
2018-08-30T00:34:28.982Z,19.84
2018-08-30T00:36:57.972Z,19.58
2018-08-30T00:39:26.929Z,19.71
2018-08-30T00:41:55.901Z,19.88
2018-08-30T00:44:25.125Z,19.64
2018-08-30T00:46:54.462Z,19.63
2018-08-30T00:49:23.714Z,19.74
2018-08-30T00:51:52.866Z,19.61
2018-08-30T00:54:22.118Z,19.32
2018-08-30T00:56:51.485Z,19.27
2018-08-30T00:59:20.698Z,19.14
2018-08-30T01:01:49.957Z,19.29
2018-08-30T01:04:19.369Z,19.60
2018-08-30T01:06:48.376Z,19.77
2018-08-30T01:09:17.270Z,19.70
2018-08-30T01:11:46.510Z,19.65
2018-08-30T01:14:15.744Z,19.52
2018-08-30T01:16:45.150Z,19.46
2018-08-30T01:19:14.285Z,19.37
2018-08-30T01:21:43.280Z,19.58
2018-08-30T01:24:12.626Z,19.80
2018-08-30T01:26:41.953Z,19.45
2018-08-30T01:29:10.929Z,19.20
2018-08-30T01:31:40.018Z,19.26
2018-08-30T01:34:11.620Z,19.42
2018-08-30T01:36:41.823Z,19.41
2018-08-30T01:39:11.219Z,19.41
2018-08-30T01:41:41.259Z,19.54
2018-08-30T01:44:10.399Z,19.00
2018-08-30T01:46:39.403Z,19.55
2018-08-30T01:49:08.389Z,19.34
2018-08-30T01:51:37.473Z,19.17
2018-08-30T01:54:06.861Z,19.58
2018-08-30T01:56:35.835Z,19.33
2018-08-30T01:59:04.898Z,19.41
2018-08-30T02:01:33.858Z,19.51
2018-08-30T02:04:03.202Z,19.14
2018-08-30T02:06:32.202Z,19.18
2018-08-30T02:09:01.157Z,19.42
2018-08-30T02:11:30.086Z,19.22
2018-08-30T02:13:59.115Z,19.24
2018-08-30T02:16:28.052Z,18.98
2018-08-30T02:18:57.032Z,19.06
2018-08-30T02:21:26.026Z,19.50
2018-08-30T02:23:55.066Z,19.38
2018-08-30T02:26:24.051Z,19.14
2018-08-30T02:28:53.063Z,19.43
2018-08-30T02:31:22.026Z,19.29
2018-08-30T02:33:51.050Z,19.33
2018-08-30T02:36:19.989Z,19.29
2018-08-30T02:38:49.007Z,19.15
2018-08-30T02:41:17.957Z,19.23
2018-08-30T02:43:46.986Z,18.83
2018-08-30T02:46:15.949Z,19.21
2018-08-30T02:48:44.894Z,19.26
2018-08-30T02:51:13.916Z,18.76
2018-08-30T02:53:43.117Z,18.82
2018-08-30T02:56:12.149Z,18.76
2018-08-30T02:58:41.131Z,18.84
2018-08-30T03:01:10.130Z,18.75
2018-08-30T03:03:39.449Z,18.89
2018-08-30T03:06:08.473Z,18.78
2018-08-30T03:08:37.462Z,18.52
2018-08-30T03:11:06.598Z,18.51
2018-08-30T03:13:35.622Z,18.66
2018-08-30T03:16:04.637Z,18.70
2018-08-30T03:18:33.618Z,18.70
2018-08-30T03:21:02.633Z,18.59
2018-08-30T03:23:31.558Z,18.84
2018-08-30T03:26:00.594Z,18.85
2018-08-30T03:28:29.486Z,18.69
2018-08-30T03:30:58.639Z,18.64
2018-08-30T03:33:27.608Z,18.53
2018-08-30T03:35:56.617Z,18.69
2018-08-30T03:38:25.619Z,18.52
2018-08-30T03:40:54.614Z,18.51
2018-08-30T03:43:23.514Z,18.54
2018-08-30T03:45:52.564Z,18.64
2018-08-30T03:48:21.558Z,18.51
2018-08-30T03:50:50.534Z,18.25
2018-08-30T03:53:19.549Z,18.29
2018-08-30T03:55:48.534Z,18.41
2018-08-30T03:58:17.563Z,18.31
2018-08-30T04:00:46.659Z,18.12
2018-08-30T04:03:15.609Z,18.22
2018-08-30T04:05:44.605Z,18.34
2018-08-30T04:08:13.640Z,18.40
2018-08-30T04:10:42.759Z,18.36
2018-08-30T04:13:11.759Z,18.50
2018-08-30T04:15:40.739Z,18.27
2018-08-30T04:18:09.737Z,18.50
2018-08-30T04:20:38.800Z,18.54
2018-08-30T04:23:07.733Z,18.45
2018-08-30T04:25:36.736Z,18.01
2018-08-30T04:28:05.902Z,18.35
2018-08-30T04:30:34.817Z,18.06
2018-08-30T04:33:03.777Z,18.43
2018-08-30T04:35:32.721Z,18.28
2018-08-30T04:38:01.770Z,18.04
2018-08-30T04:40:30.703Z,18.34
2018-08-30T04:42:59.707Z,18.47
2018-08-30T04:45:28.787Z,18.47
2018-08-30T04:47:57.755Z,17.96
2018-08-30T04:50:26.869Z,18.25
2018-08-30T04:52:55.882Z,18.57
2018-08-30T04:55:24.899Z,18.02
2018-08-30T04:57:53.885Z,18.16
2018-08-30T05:00:23.058Z,18.38
2018-08-30T05:02:52.135Z,18.10
2018-08-30T05:05:21.151Z,18.48
2018-08-30T05:07:50.315Z,18.38
2018-08-30T05:10:19.410Z,18.01
2018-08-30T05:12:48.477Z,18.13
2018-08-30T05:15:17.406Z,17.96
2018-08-30T05:17:46.453Z,18.44
2018-08-30T05:20:15.401Z,18.21
2018-08-30T05:22:44.496Z,18.43
2018-08-30T05:25:13.480Z,18.81
2018-08-30T05:27:42.522Z,18.66
2018-08-30T05:30:11.490Z,18.36
2018-08-30T05:32:40.578Z,18.42
2018-08-30T05:35:09.662Z,18.10
2018-08-30T05:37:38.789Z,18.50
2018-08-30T05:40:07.822Z,18.51
2018-08-30T05:42:36.957Z,18.37
2018-08-30T05:45:05.906Z,18.54
2018-08-30T05:47:34.994Z,18.17
2018-08-30T05:50:03.942Z,17.81
2018-08-30T05:52:32.922Z,18.12
2018-08-30T05:55:01.938Z,18.49
2018-08-30T05:57:31.024Z,18.27
2018-08-30T06:00:01.358Z,18.46
2018-08-30T06:02:30.721Z,18.19
2018-08-30T06:05:00.117Z,18.40
2018-08-30T06:07:29.148Z,18.35
2018-08-30T06:09:58.108Z,18.30
2018-08-30T06:12:27.231Z,18.58
2018-08-30T06:14:56.951Z,18.48
2018-08-30T06:17:26.230Z,18.53
2018-08-30T06:19:55.317Z,18.70
2018-08-30T06:22:24.344Z,18.64
2018-08-30T06:24:53.442Z,18.55
2018-08-30T06:27:22.477Z,18.77
2018-08-30T06:29:51.497Z,18.46
2018-08-30T06:32:20.593Z,18.37
2018-08-30T06:34:49.671Z,18.36
2018-08-30T06:37:18.749Z,18.58
2018-08-30T06:39:47.818Z,18.52
2018-08-30T06:42:16.793Z,18.57
2018-08-30T06:44:45.807Z,18.47
2018-08-30T06:47:14.932Z,18.49
2018-08-30T06:49:43.927Z,18.71
2018-08-30T06:52:12.971Z,18.79
2018-08-30T06:54:41.985Z,18.58
2018-08-30T06:57:10.961Z,18.83
2018-08-30T06:59:39.961Z,18.88
2018-08-30T07:02:08.968Z,18.88
2018-08-30T07:04:37.942Z,19.33
2018-08-30T07:07:06.902Z,18.91
2018-08-30T07:09:36.154Z,18.87
2018-08-30T07:12:05.200Z,18.75
2018-08-30T07:14:34.296Z,19.15
2018-08-30T07:17:03.330Z,19.09
2018-08-30T07:19:32.373Z,19.14
2018-08-30T07:22:01.350Z,18.68
2018-08-30T07:24:30.408Z,18.93
2018-08-30T07:26:59.338Z,18.91
2018-08-30T07:29:28.347Z,18.61
2018-08-30T07:31:57.428Z,18.86
2018-08-30T07:34:26.821Z,18.76
2018-08-30T07:36:55.784Z,18.91
2018-08-30T07:39:24.846Z,18.71
2018-08-30T07:41:53.860Z,18.41
2018-08-30T07:44:23.054Z,18.42
2018-08-30T07:46:52.145Z,18.73
2018-08-30T07:49:21.138Z,18.74
2018-08-30T07:51:50.215Z,18.87
2018-08-30T07:54:19.328Z,18.77
2018-08-30T07:56:48.365Z,19.07
2018-08-30T07:59:17.382Z,18.80
2018-08-30T08:01:46.397Z,19.19
2018-08-30T08:04:15.615Z,19.41
2018-08-30T08:06:44.726Z,19.27
2018-08-30T08:09:13.853Z,19.39
2018-08-30T08:11:42.963Z,19.46
2018-08-30T08:14:12.033Z,19.26
2018-08-30T08:16:41.124Z,19.30
2018-08-30T08:19:10.220Z,19.60
2018-08-30T08:21:39.260Z,20.11
2018-08-30T08:24:08.610Z,20.38
2018-08-30T08:26:37.622Z,20.97
2018-08-30T08:29:06.906Z,20.98
2018-08-30T08:31:35.890Z,21.01
2018-08-30T08:34:04.901Z,20.88
2018-08-30T08:36:33.806Z,21.22
2018-08-30T08:39:03.080Z,20.76
2018-08-30T08:41:32.354Z,20.81
2018-08-30T08:44:01.478Z,20.54
2018-08-30T08:46:30.860Z,20.24
2018-08-30T08:48:59.915Z,20.24
2018-08-30T08:51:28.853Z,20.27
2018-08-30T08:53:57.938Z,20.74
2018-08-30T08:56:26.861Z,20.86
2018-08-30T08:58:56.255Z,21.11
2018-08-30T09:01:25.180Z,20.77
2018-08-30T09:03:54.201Z,21.00
2018-08-30T09:06:23.156Z,20.95
2018-08-30T09:08:52.203Z,20.63
2018-08-30T09:11:21.134Z,20.49
2018-08-30T09:13:50.158Z,20.36
2018-08-30T09:16:19.104Z,20.77
2018-08-30T09:18:48.683Z,21.20
2018-08-30T09:21:17.677Z,21.53
2018-08-30T09:23:46.648Z,20.85
2018-08-30T09:26:15.602Z,20.92
2018-08-30T09:28:44.575Z,21.03
2018-08-30T09:31:13.585Z,21.22
2018-08-30T09:33:42.715Z,20.68
2018-08-30T09:36:11.649Z,21.72
2018-08-30T09:38:40.655Z,21.25
2018-08-30T09:41:09.595Z,21.15
2018-08-30T09:43:38.594Z,22.00
2018-08-30T09:46:07.569Z,22.36
2018-08-30T09:48:36.677Z,21.74
2018-08-30T09:51:05.758Z,22.13
2018-08-30T09:53:34.873Z,22.68
2018-08-30T09:56:04.024Z,22.69
2018-08-30T09:58:33.038Z,22.63
2018-08-30T10:01:07.032Z,22.76
2018-08-30T10:03:36.078Z,22.58
2018-08-30T10:06:05.221Z,22.80
2018-08-30T10:08:34.625Z,23.21
2018-08-30T10:11:03.899Z,23.77
2018-08-30T10:13:33.224Z,22.84
2018-08-30T10:16:02.249Z,22.32
2018-08-30T10:18:31.226Z,22.96
2018-08-30T10:21:00.248Z,23.23
2018-08-30T10:23:29.347Z,22.81
2018-08-30T10:25:58.308Z,24.17
2018-08-30T10:28:27.306Z,24.70
2018-08-30T10:30:56.308Z,24.01
2018-08-30T10:33:25.530Z,23.57
2018-08-30T10:35:54.784Z,23.88
2018-08-30T10:38:24.084Z,23.79
2018-08-30T10:40:53.110Z,23.34
2018-08-30T10:43:22.015Z,23.15
2018-08-30T10:45:50.998Z,22.92
2018-08-30T10:48:19.941Z,23.07
2018-08-30T10:50:48.899Z,22.88
2018-08-30T10:53:17.808Z,23.27
2018-08-30T10:55:46.791Z,23.81
2018-08-30T10:58:15.800Z,24.06
2018-08-30T11:00:44.819Z,24.37
2018-08-30T11:03:14.081Z,23.72
2018-08-30T11:05:43.261Z,23.66
2018-08-30T11:08:12.242Z,23.72
2018-08-30T11:10:41.331Z,23.54
2018-08-30T11:13:10.469Z,23.57
2018-08-30T11:15:39.381Z,23.22
2018-08-30T11:18:08.750Z,23.41
2018-08-30T11:20:37.792Z,22.60
2018-08-30T11:23:06.786Z,22.90
2018-08-30T11:25:35.833Z,23.33
2018-08-30T11:28:04.847Z,23.35
2018-08-30T11:30:33.893Z,24.15
2018-08-30T11:33:02.921Z,23.99
2018-08-30T11:35:31.927Z,23.43
2018-08-30T11:38:00.996Z,24.12
2018-08-30T11:40:30.034Z,23.79
2018-08-30T11:42:59.158Z,24.05
2018-08-30T11:45:28.210Z,24.31
2018-08-30T11:47:57.228Z,24.43
2018-08-30T11:50:26.213Z,24.59
2018-08-30T11:52:55.215Z,23.92
2018-08-30T11:55:24.278Z,23.96
2018-08-30T11:57:53.354Z,23.82
2018-08-30T12:00:22.426Z,23.81
2018-08-30T12:02:51.421Z,24.22
2018-08-30T12:05:20.435Z,23.40
2018-08-30T12:07:50.287Z,23.63
2018-08-30T12:10:19.443Z,23.68
2018-08-30T12:12:48.406Z,23.76
2018-08-30T12:15:17.438Z,24.13
2018-08-30T12:17:46.439Z,24.39
2018-08-30T12:20:15.451Z,24.41
2018-08-30T12:22:44.467Z,24.51
2018-08-30T12:25:13.394Z,24.02
2018-08-30T12:27:42.422Z,24.37
2018-08-30T12:30:11.367Z,24.03
2018-08-30T12:32:40.421Z,23.83
2018-08-30T12:35:09.621Z,23.91
2018-08-30T12:37:38.664Z,24.22
2018-08-30T12:40:07.726Z,23.90
2018-08-30T12:42:36.627Z,24.39
2018-08-30T12:45:05.698Z,23.76
2018-08-30T12:47:35.225Z,23.55
2018-08-30T12:50:04.307Z,23.84
2018-08-30T12:52:33.401Z,23.71
2018-08-30T12:55:02.457Z,23.55
2018-08-30T12:57:31.489Z,23.60
2018-08-30T13:00:00.485Z,23.52
2018-08-30T13:02:29.548Z,23.64
2018-08-30T13:04:58.599Z,23.83
2018-08-30T13:07:27.695Z,23.81
2018-08-30T13:09:56.776Z,23.51
2018-08-30T13:12:25.848Z,23.55
2018-08-30T13:14:54.662Z,23.63
2018-08-30T13:17:23.625Z,23.45
2018-08-30T13:19:52.676Z,23.28
2018-08-30T13:22:21.858Z,23.74
2018-08-30T13:24:50.793Z,24.11
2018-08-30T13:27:19.854Z,24.35
2018-08-30T13:29:48.823Z,25.07
2018-08-30T13:32:17.938Z,25.50
2018-08-30T13:34:47.001Z,25.96
2018-08-30T13:37:15.869Z,26.24
2018-08-30T13:39:45.000Z,26.06
2018-08-30T13:42:14.094Z,25.88
2018-08-30T13:44:43.279Z,25.72
2018-08-30T13:47:12.183Z,25.38
2018-08-30T13:49:41.038Z,24.65
2018-08-30T13:52:10.269Z,26.54
2018-08-30T13:54:39.086Z,26.79
2018-08-30T13:57:08.568Z,26.65
2018-08-30T13:59:37.649Z,26.13
2018-08-30T14:02:06.501Z,25.53
2018-08-30T14:04:35.470Z,26.41
2018-08-30T14:07:04.660Z,26.03
2018-08-30T14:09:33.629Z,25.75
2018-08-30T14:12:02.957Z,25.50
2018-08-30T14:14:31.916Z,25.91
2018-08-30T14:17:00.666Z,26.41
2018-08-30T14:19:29.582Z,26.17
2018-08-30T14:21:58.656Z,26.09
2018-08-30T14:24:27.588Z,26.15
2018-08-30T14:26:56.824Z,25.49
2018-08-30T14:29:25.725Z,25.84
2018-08-30T14:31:54.817Z,25.76
2018-08-30T14:34:23.892Z,25.39
2018-08-30T14:36:52.902Z,24.90
2018-08-30T14:39:21.909Z,26.12
2018-08-30T14:41:51.362Z,26.83
2018-08-30T14:44:20.634Z,26.92
2018-08-30T14:46:50.023Z,26.81
2018-08-30T14:49:19.301Z,26.25
2018-08-30T14:51:48.909Z,26.19
2018-08-30T14:54:18.365Z,26.47
2018-08-30T14:56:47.827Z,26.97
2018-08-30T14:59:17.366Z,26.90
2018-08-30T15:01:46.622Z,27.40
2018-08-30T15:04:15.905Z,27.03
2018-08-30T15:06:45.304Z,26.75
2018-08-30T15:09:14.689Z,26.51
2018-08-30T15:11:44.357Z,26.52
2018-08-30T15:14:13.729Z,26.52
2018-08-30T15:16:43.215Z,26.49
2018-08-30T15:19:12.968Z,26.30
2018-08-30T15:21:42.333Z,26.69
2018-08-30T15:24:11.789Z,26.45
2018-08-30T15:26:41.105Z,26.33
2018-08-30T15:29:10.420Z,26.41
2018-08-30T15:31:39.887Z,26.36
2018-08-30T15:34:09.140Z,25.88
2018-08-30T15:36:38.405Z,25.35
2018-08-30T15:39:09.090Z,25.83
2018-08-30T15:41:38.182Z,25.59
2018-08-30T15:44:07.426Z,25.76
2018-08-30T15:46:36.501Z,25.28
2018-08-30T15:49:05.578Z,25.46
2018-08-30T15:51:34.625Z,25.03
2018-08-30T15:54:03.638Z,25.17
2018-08-30T15:56:32.572Z,24.82
2018-08-30T15:59:01.667Z,24.83
2018-08-30T16:01:30.729Z,24.39
2018-08-30T16:03:59.892Z,24.47
2018-08-30T16:06:28.927Z,24.91
2018-08-30T16:08:57.922Z,24.76
2018-08-30T16:11:26.871Z,24.70
2018-08-30T16:13:56.069Z,24.84
2018-08-30T16:16:25.019Z,24.76
2018-08-30T16:18:54.118Z,24.73
2018-08-30T16:21:23.109Z,24.00
2018-08-30T16:23:52.127Z,24.54
2018-08-30T16:26:21.131Z,24.93
2018-08-30T16:28:50.149Z,24.34
2018-08-30T16:31:19.158Z,24.40
2018-08-30T16:33:48.142Z,23.76
2018-08-30T16:36:17.146Z,24.37
2018-08-30T16:38:46.165Z,24.27
2018-08-30T16:41:15.286Z,24.33
2018-08-30T16:43:44.362Z,24.45
2018-08-30T16:46:13.331Z,24.07
2018-08-30T16:48:42.508Z,24.00
2018-08-30T16:51:11.380Z,23.93
2018-08-30T16:53:40.463Z,24.21
2018-08-30T16:56:09.417Z,24.17
2018-08-30T16:58:38.495Z,23.93
2018-08-30T17:01:07.475Z,23.96
2018-08-30T17:03:36.915Z,23.83
2018-08-30T17:06:06.251Z,23.89
2018-08-30T17:08:35.282Z,24.04
2018-08-30T17:11:04.258Z,23.83
2018-08-30T17:13:33.337Z,23.82
2018-08-30T17:16:02.406Z,23.63
2018-08-30T17:18:31.441Z,23.96
2018-08-30T17:21:00.460Z,23.51
2018-08-30T17:23:29.438Z,23.58
2018-08-30T17:25:58.464Z,23.36
2018-08-30T17:28:27.610Z,23.48
2018-08-30T17:30:56.684Z,22.90
2018-08-30T17:33:25.717Z,23.35
2018-08-30T17:35:54.849Z,23.24
2018-08-30T17:38:23.798Z,23.48
2018-08-30T17:40:52.847Z,23.49
2018-08-30T17:43:21.830Z,23.27
2018-08-30T17:45:51.035Z,23.03
2018-08-30T17:48:20.049Z,23.20
2018-08-30T17:50:49.015Z,23.30
2018-08-30T17:53:18.019Z,23.20
2018-08-30T17:55:47.334Z,23.26
2018-08-30T17:58:16.297Z,23.03
2018-08-30T18:00:45.382Z,22.85
2018-08-30T18:03:14.411Z,22.66
2018-08-30T18:05:43.506Z,22.56
2018-08-30T18:08:12.526Z,22.68
2018-08-30T18:10:41.637Z,22.73
2018-08-30T18:13:10.682Z,22.52
2018-08-30T18:15:39.766Z,22.46
2018-08-30T18:18:08.742Z,22.42
2018-08-30T18:20:37.835Z,22.33
2018-08-30T18:23:07.189Z,22.00
2018-08-30T18:25:36.292Z,21.93
2018-08-30T18:28:05.491Z,21.71
2018-08-30T18:30:34.625Z,21.87
2018-08-30T18:33:03.813Z,21.93
2018-08-30T18:35:32.829Z,21.62
2018-08-30T18:38:01.834Z,21.71
2018-08-30T18:40:31.030Z,21.57
2018-08-30T18:43:00.094Z,21.28
2018-08-30T18:45:29.098Z,20.06
2018-08-30T18:47:58.130Z,20.02
2018-08-30T18:50:27.192Z,20.07
2018-08-30T18:52:56.322Z,20.02
2018-08-30T18:55:25.386Z,20.19
2018-08-30T18:57:54.373Z,20.38
2018-08-30T19:00:23.445Z,19.80
2018-08-30T19:02:52.646Z,19.43
2018-08-30T19:05:21.742Z,19.28
2018-08-30T19:07:50.982Z,19.51
2018-08-30T19:10:20.178Z,19.78
2018-08-30T19:12:49.890Z,19.87
2018-08-30T19:15:24.618Z,19.87
2018-08-30T19:18:00.342Z,19.80
2018-08-30T19:20:30.060Z,19.33
2018-08-30T19:22:59.193Z,19.14
2018-08-30T19:25:30.192Z,19.37
2018-08-30T19:27:59.346Z,19.29
2018-08-30T19:30:30.263Z,18.18
2018-08-30T19:33:00.193Z,18.44
2018-08-30T19:35:34.479Z,17.86
2018-08-30T19:38:04.103Z,18.30
2018-08-30T19:40:38.820Z,17.94
2018-08-30T19:43:08.182Z,17.76
2018-08-30T19:45:37.520Z,18.00
2018-08-30T19:48:06.807Z,17.37
2018-08-30T19:50:36.125Z,17.83
2018-08-30T19:53:05.498Z,18.05
2018-08-30T19:55:34.708Z,17.85
2018-08-30T19:58:04.542Z,18.32
2018-08-30T20:00:34.193Z,18.59
2018-08-30T20:03:03.459Z,18.72
2018-08-30T20:05:32.766Z,18.84
2018-08-30T20:08:02.264Z,18.76
2018-08-30T20:10:31.882Z,18.83
2018-08-30T20:13:01.361Z,18.81
2018-08-30T20:15:30.630Z,18.45
2018-08-30T20:17:59.968Z,18.52
2018-08-30T20:20:29.187Z,18.82
2018-08-30T20:22:58.454Z,18.87
2018-08-30T20:25:27.864Z,18.97
2018-08-30T20:27:57.193Z,18.85
2018-08-30T20:30:26.563Z,18.95
2018-08-30T20:32:56.080Z,18.87
2018-08-30T20:35:25.470Z,18.80
2018-08-30T20:37:54.854Z,18.72
2018-08-30T20:40:24.093Z,18.55
2018-08-30T20:42:53.469Z,18.77
2018-08-30T20:45:22.867Z,18.25
2018-08-30T20:47:52.275Z,18.36
2018-08-30T20:50:21.935Z,18.54
2018-08-30T20:52:51.299Z,17.95
2018-08-30T20:55:20.765Z,16.61
2018-08-30T20:57:50.157Z,16.75
2018-08-30T21:00:19.497Z,17.44
2018-08-30T21:02:49.315Z,17.79
2018-08-30T21:05:19.002Z,17.93
2018-08-30T21:07:48.470Z,18.02
2018-08-30T21:10:17.740Z,17.83
2018-08-30T21:12:47.158Z,18.19
2018-08-30T21:15:17.058Z,17.89
2018-08-30T21:17:46.372Z,17.98
2018-08-30T21:20:17.054Z,18.08
2018-08-30T21:22:47.316Z,17.96
2018-08-30T21:25:17.832Z,18.06
2018-08-30T21:27:48.139Z,17.96
2018-08-30T21:30:18.201Z,18.03
2018-08-30T21:32:48.381Z,18.23
2018-08-30T21:35:18.793Z,18.13
2018-08-30T21:37:49.169Z,18.05
2018-08-30T21:40:19.295Z,18.02
2018-08-30T21:42:49.762Z,18.27
2018-08-30T21:45:20.270Z,18.19
2018-08-30T21:47:50.795Z,18.04
2018-08-30T21:50:20.068Z,18.00
2018-08-30T21:52:49.513Z,17.57
2018-08-30T21:55:18.961Z,17.70
2018-08-30T21:57:48.410Z,17.76
2018-08-30T22:00:17.944Z,18.06
2018-08-30T22:02:47.379Z,17.94
2018-08-30T22:05:17.371Z,17.52
2018-08-30T22:07:48.312Z,17.35
2018-08-30T22:10:18.642Z,17.53
2018-08-30T22:12:49.051Z,17.61
2018-08-30T22:15:19.412Z,17.53
2018-08-30T22:17:49.393Z,17.72
2018-08-30T22:20:18.804Z,17.68
2018-08-30T22:22:49.238Z,17.77
2018-08-30T22:25:19.752Z,17.32
2018-08-30T22:27:50.937Z,17.47
2018-08-30T22:30:21.618Z,16.62
2018-08-30T22:32:51.765Z,17.10
2018-08-30T22:35:21.773Z,16.85
2018-08-30T22:37:51.869Z,16.87
2018-08-30T22:40:21.142Z,16.98
2018-08-30T22:42:50.480Z,17.31
2018-08-30T22:45:20.133Z,17.34
2018-08-30T22:47:49.619Z,17.45
2018-08-30T22:50:18.910Z,17.49
2018-08-30T22:52:48.234Z,17.17
2018-08-30T22:55:17.651Z,17.16
2018-08-30T22:57:47.056Z,17.44
2018-08-30T23:00:16.234Z,17.00
2018-08-30T23:02:45.823Z,17.18
2018-08-30T23:05:15.025Z,17.38
2018-08-30T23:07:44.455Z,17.26
2018-08-30T23:10:13.905Z,17.28
2018-08-30T23:12:43.166Z,17.45
2018-08-30T23:15:12.770Z,17.44
2018-08-30T23:17:42.318Z,17.27
2018-08-30T23:20:11.969Z,17.24
2018-08-30T23:22:41.310Z,17.41
2018-08-30T23:25:10.609Z,17.13
2018-08-30T23:27:40.095Z,17.02
2018-08-30T23:30:09.595Z,17.06
2018-08-30T23:32:39.107Z,16.74
2018-08-30T23:35:08.288Z,16.92
2018-08-30T23:37:37.910Z,16.87
2018-08-30T23:40:09.045Z,17.09
2018-08-30T23:42:38.382Z,16.50
2018-08-30T23:45:07.969Z,16.43
2018-08-30T23:47:37.295Z,16.84
2018-08-30T23:50:07.000Z,16.40
2018-08-30T23:52:36.353Z,16.85
2018-08-30T23:55:05.731Z,17.00
2018-08-30T23:57:35.199Z,17.02
